createdAt,value
2022-08-27T00:00:20.917Z,22.69
2022-08-27T00:02:49.049Z,22.66
2022-08-27T00:05:18.250Z,22.60
2022-08-27T00:07:46.158Z,22.59
2022-08-27T00:10:18.034Z,22.57
2022-08-27T00:12:44.855Z,22.56
2022-08-27T00:15:12.645Z,22.54
2022-08-27T00:17:46.908Z,22.54
2022-08-27T00:20:18.010Z,22.49
2022-08-27T00:22:44.864Z,22.46
2022-08-27T00:25:13.036Z,22.44
2022-08-27T00:27:40.285Z,22.43
2022-08-27T00:30:11.122Z,22.42
2022-08-27T00:32:38.801Z,22.41
2022-08-27T00:35:05.970Z,22.40
2022-08-27T00:37:33.495Z,22.40
2022-08-27T00:40:00.789Z,22.37
2022-08-27T00:42:27.756Z,22.36
2022-08-27T00:44:59.359Z,22.35
2022-08-27T00:47:30.686Z,22.33
2022-08-27T00:50:12.582Z,22.33
2022-08-27T00:52:45.474Z,22.31
2022-08-27T00:55:18.153Z,22.28
2022-08-27T00:57:49.917Z,22.27
2022-08-27T01:00:18.392Z,22.25
2022-08-27T01:02:47.296Z,22.25
2022-08-27T01:05:18.429Z,22.25
2022-08-27T01:07:50.234Z,22.23
2022-08-27T01:10:20.145Z,22.22
2022-08-27T01:12:53.772Z,22.23
2022-08-27T01:15:23.233Z,22.24
2022-08-27T01:17:51.065Z,22.22
2022-08-27T01:20:27.352Z,22.20
2022-08-27T01:23:18.407Z,22.18
2022-08-27T01:25:45.986Z,22.17
2022-08-27T01:28:14.138Z,22.16
2022-08-27T01:30:41.650Z,22.16
2022-08-27T01:33:14.802Z,22.20
2022-08-27T01:35:43.218Z,22.21
2022-08-27T01:38:19.006Z,22.19
2022-08-27T01:40:59.066Z,22.17
2022-08-27T01:43:27.460Z,22.14
2022-08-27T01:45:54.130Z,22.12
2022-08-27T01:48:22.507Z,22.10
2022-08-27T01:50:49.735Z,22.06
2022-08-27T01:53:20.844Z,22.08
2022-08-27T01:55:49.710Z,22.09
2022-08-27T01:58:18.857Z,22.07
2022-08-27T02:00:51.964Z,22.05
2022-08-27T02:03:23.640Z,22.00
2022-08-27T02:05:50.327Z,21.98
2022-08-27T02:08:17.698Z,21.98
2022-08-27T02:10:46.888Z,21.99
2022-08-27T02:13:13.841Z,21.95
2022-08-27T02:15:41.891Z,21.95
2022-08-27T02:18:10.778Z,21.93
2022-08-27T02:20:38.152Z,21.92
2022-08-27T02:23:05.132Z,21.90
2022-08-27T02:25:31.904Z,21.89
2022-08-27T02:28:00.779Z,21.86
2022-08-27T02:30:29.563Z,21.85
2022-08-27T02:32:56.207Z,21.82
2022-08-27T02:35:24.460Z,21.82
2022-08-27T02:37:51.933Z,21.81
2022-08-27T02:40:21.110Z,21.81
2022-08-27T02:42:47.838Z,21.79
2022-08-27T02:45:15.833Z,21.77
2022-08-27T02:47:43.030Z,21.72
2022-08-27T02:50:10.587Z,21.65
2022-08-27T02:52:37.352Z,21.56
2022-08-27T02:55:06.801Z,21.46
2022-08-27T02:57:36.489Z,21.42
2022-08-27T03:00:06.747Z,21.40
2022-08-27T03:02:33.501Z,21.40
2022-08-27T03:05:00.294Z,21.39
2022-08-27T03:07:27.382Z,21.36
2022-08-27T03:09:54.013Z,21.36
2022-08-27T03:12:20.853Z,21.35
2022-08-27T03:14:49.621Z,21.34
2022-08-27T03:17:35.142Z,21.33
2022-08-27T03:20:02.320Z,21.27
2022-08-27T03:22:29.291Z,21.22
2022-08-27T03:24:56.438Z,21.19
2022-08-27T03:27:23.135Z,21.16
2022-08-27T03:29:49.863Z,21.14
2022-08-27T03:32:16.501Z,21.12
2022-08-27T03:34:43.240Z,21.12
2022-08-27T03:37:09.879Z,21.13
2022-08-27T03:39:36.566Z,21.11
2022-08-27T03:42:03.961Z,21.10
2022-08-27T03:44:31.392Z,21.09
2022-08-27T03:46:57.976Z,21.07
2022-08-27T03:49:24.644Z,21.06
2022-08-27T03:51:53.846Z,21.05
2022-08-27T03:54:20.593Z,21.05
2022-08-27T03:56:47.241Z,21.07
2022-08-27T03:59:15.772Z,21.07
2022-08-27T04:01:43.504Z,21.08
2022-08-27T04:04:10.358Z,21.10
2022-08-27T04:06:37.038Z,21.10
2022-08-27T04:09:04.471Z,21.10
2022-08-27T04:11:34.475Z,21.11
2022-08-27T04:14:04.505Z,21.12
2022-08-27T04:16:48.206Z,21.13
2022-08-27T04:19:17.386Z,21.14
2022-08-27T04:21:44.037Z,21.14
2022-08-27T04:24:11.985Z,21.16
2022-08-27T04:26:42.596Z,21.21
2022-08-27T04:29:09.204Z,21.25
2022-08-27T04:31:35.851Z,21.29
2022-08-27T04:34:02.869Z,21.31
2022-08-27T04:36:29.452Z,21.29
2022-08-27T04:38:56.107Z,21.29
2022-08-27T04:41:25.062Z,21.37
2022-08-27T04:43:59.575Z,21.44
2022-08-27T04:46:29.519Z,21.53
2022-08-27T04:49:01.407Z,21.58
2022-08-27T04:51:29.152Z,21.58
2022-08-27T04:53:57.358Z,21.67
2022-08-27T04:56:28.360Z,21.77
2022-08-27T04:58:55.677Z,21.85
2022-08-27T05:01:28.068Z,21.92
2022-08-27T05:03:55.624Z,22.00
2022-08-27T05:06:23.382Z,22.08
2022-08-27T05:08:51.772Z,22.21
2022-08-27T05:11:20.796Z,22.33
2022-08-27T05:13:48.480Z,22.42
2022-08-27T05:16:19.175Z,22.52
2022-08-27T05:18:48.567Z,22.57
2022-08-27T05:21:30.459Z,22.57
2022-08-27T05:23:59.604Z,22.69
2022-08-27T05:26:28.181Z,22.76
2022-08-27T05:28:55.471Z,22.93
2022-08-27T05:31:22.644Z,23.01
2022-08-27T05:33:50.113Z,23.11
2022-08-27T05:36:20.532Z,23.23
2022-08-27T05:38:49.371Z,23.32
2022-08-27T05:41:20.086Z,23.33
2022-08-27T05:43:50.338Z,23.50
2022-08-27T05:46:20.422Z,23.52
2022-08-27T05:48:47.623Z,23.68
2022-08-27T05:51:16.193Z,23.82
2022-08-27T05:53:55.298Z,23.99
2022-08-27T05:56:24.229Z,24.21
2022-08-27T05:59:09.612Z,24.33
2022-08-27T06:01:40.941Z,24.45
2022-08-27T06:04:09.368Z,24.74
2022-08-27T06:06:37.827Z,25.06
2022-08-27T06:09:05.306Z,25.05
2022-08-27T06:11:32.045Z,25.21
2022-08-27T06:13:58.693Z,25.32
2022-08-27T06:16:25.558Z,25.36
2022-08-27T06:18:52.289Z,25.58
2022-08-27T06:21:24.230Z,25.64
2022-08-27T06:23:51.920Z,25.67
2022-08-27T06:26:20.053Z,25.84
2022-08-27T06:28:46.959Z,25.85
2022-08-27T06:31:16.363Z,25.90
2022-08-27T06:33:44.726Z,25.99
2022-08-27T06:36:14.671Z,26.09
2022-08-27T06:38:43.215Z,26.30
2022-08-27T06:41:16.243Z,26.51
2022-08-27T06:43:43.874Z,26.69
2022-08-27T06:46:14.280Z,26.76
2022-08-27T06:48:41.449Z,26.79
2022-08-27T06:51:14.557Z,26.83
2022-08-27T06:53:43.558Z,27.20
2022-08-27T06:56:11.836Z,27.32
2022-08-27T06:58:38.521Z,27.57
2022-08-27T07:01:20.349Z,27.68
2022-08-27T07:03:47.098Z,27.72
2022-08-27T07:06:17.233Z,28.04
2022-08-27T07:08:53.251Z,28.00
2022-08-27T07:11:21.093Z,27.63
2022-08-27T07:13:49.104Z,27.53
2022-08-27T07:16:22.212Z,27.74
2022-08-27T07:18:55.560Z,28.20
2022-08-27T07:21:23.577Z,28.17
2022-08-27T07:23:53.080Z,28.14
2022-08-27T07:26:21.791Z,28.23
2022-08-27T07:28:50.132Z,28.40
2022-08-27T07:31:20.068Z,28.61
2022-08-27T07:33:51.466Z,28.88
2022-08-27T07:36:20.359Z,28.51
2022-08-27T07:38:56.594Z,28.72
2022-08-27T07:41:31.010Z,28.57
2022-08-27T07:44:18.590Z,29.04
2022-08-27T07:46:48.351Z,29.43
2022-08-27T07:49:16.494Z,29.98
2022-08-27T07:51:43.121Z,30.25
2022-08-27T07:54:09.844Z,30.11
2022-08-27T07:56:36.561Z,29.84
2022-08-27T07:59:03.259Z,30.21
2022-08-27T08:01:30.178Z,30.20
2022-08-27T08:03:57.011Z,30.71
2022-08-27T08:06:24.015Z,30.02
2022-08-27T08:08:50.675Z,29.74
2022-08-27T08:11:18.649Z,29.70
2022-08-27T08:13:46.655Z,30.10
2022-08-27T08:16:14.420Z,30.00
2022-08-27T08:18:41.101Z,30.09
2022-08-27T08:21:12.476Z,30.27
2022-08-27T08:23:39.463Z,29.89
2022-08-27T08:26:06.934Z,30.22
2022-08-27T08:28:34.164Z,30.34
2022-08-27T08:31:01.554Z,30.73
2022-08-27T08:33:28.861Z,30.52
2022-08-27T08:35:55.597Z,30.82
2022-08-27T08:38:22.339Z,30.49
2022-08-27T08:40:54.563Z,30.81
2022-08-27T08:43:27.639Z,31.04
2022-08-27T08:45:56.927Z,30.96
2022-08-27T08:48:29.692Z,31.34
2022-08-27T08:50:59.114Z,31.11
2022-08-27T08:53:52.408Z,31.63
2022-08-27T08:56:31.046Z,31.72
2022-08-27T08:59:04.287Z,31.65
2022-08-27T09:01:31.010Z,31.74
2022-08-27T09:04:01.018Z,31.97
2022-08-27T09:06:41.085Z,31.57
2022-08-27T09:09:30.767Z,31.42
2022-08-27T09:12:08.833Z,31.39
2022-08-27T09:14:49.311Z,31.19
2022-08-27T09:17:17.059Z,31.78
2022-08-27T09:19:44.251Z,31.98
2022-08-27T09:22:21.326Z,31.71
2022-08-27T09:25:11.716Z,31.92
2022-08-27T09:27:42.942Z,31.95
2022-08-27T09:30:11.578Z,31.64
2022-08-27T09:32:39.365Z,31.77
2022-08-27T09:35:09.675Z,32.32
2022-08-27T09:37:43.807Z,32.71
2022-08-27T09:40:29.358Z,33.25
2022-08-27T09:43:20.642Z,33.50
2022-08-27T09:45:57.616Z,32.84
2022-08-27T09:48:30.814Z,33.78
2022-08-27T09:51:01.305Z,34.80
2022-08-27T09:53:51.785Z,35.48
2022-08-27T09:56:29.539Z,34.91
2022-08-27T09:59:10.235Z,34.24
2022-08-27T10:01:51.206Z,34.67
2022-08-27T10:04:26.377Z,35.03
2022-08-27T10:06:54.807Z,35.37
2022-08-27T10:09:47.162Z,34.63
2022-08-27T10:12:29.293Z,33.85
2022-08-27T10:14:59.737Z,35.00
2022-08-27T10:17:41.558Z,35.59
2022-08-27T10:20:31.033Z,36.81
2022-08-27T10:23:41.939Z,36.68
2022-08-27T10:26:20.986Z,36.46
2022-08-27T10:28:47.877Z,36.23
2022-08-27T10:31:39.157Z,35.72
2022-08-27T10:34:14.376Z,36.02
2022-08-27T10:37:07.952Z,35.86
2022-08-27T10:39:46.637Z,35.71
2022-08-27T10:42:18.836Z,35.81
2022-08-27T10:45:09.631Z,36.41
2022-08-27T10:47:53.883Z,36.27
2022-08-27T10:50:49.056Z,35.30
2022-08-27T10:53:35.901Z,35.21
2022-08-27T10:56:28.850Z,35.90
2022-08-27T10:59:05.997Z,35.73
2022-08-27T11:01:41.790Z,35.67
2022-08-27T11:04:20.344Z,36.11
2022-08-27T11:06:56.858Z,35.55
2022-08-27T11:09:56.983Z,35.41
2022-08-27T11:12:33.841Z,36.52
2022-08-27T11:15:07.954Z,37.06
2022-08-27T11:18:02.505Z,37.86
2022-08-27T11:20:40.925Z,37.76
2022-08-27T11:23:15.787Z,38.24
2022-08-27T11:25:51.940Z,38.57
2022-08-27T11:28:30.043Z,38.16
2022-08-27T11:31:24.878Z,38.61
2022-08-27T11:34:05.563Z,38.27
2022-08-27T11:36:32.140Z,39.37
2022-08-27T11:38:58.701Z,40.18
2022-08-27T11:41:45.180Z,38.50
2022-08-27T11:44:15.074Z,38.85
2022-08-27T11:46:52.140Z,38.93
2022-08-27T11:49:35.479Z,39.18
2022-08-27T11:52:07.220Z,40.16
2022-08-27T11:54:49.511Z,39.02
2022-08-27T11:57:32.423Z,37.35
2022-08-27T12:00:10.893Z,36.84
2022-08-27T12:02:37.590Z,37.09
2022-08-27T12:05:33.193Z,35.38
2022-08-27T12:08:01.101Z,34.91
2022-08-27T12:10:45.139Z,34.52
2022-08-27T12:13:27.894Z,33.95
2022-08-27T12:15:58.668Z,33.29
2022-08-27T12:18:38.934Z,33.11
2022-08-27T12:21:17.472Z,32.94
2022-08-27T12:24:08.840Z,32.57
2022-08-27T12:26:41.631Z,32.41
2022-08-27T12:29:35.583Z,32.41
2022-08-27T12:32:41.795Z,32.42
2022-08-27T12:35:29.688Z,31.91
2022-08-27T12:38:16.177Z,31.44
2022-08-27T12:41:00.277Z,31.40
2022-08-27T12:43:29.953Z,31.38
2022-08-27T12:46:03.692Z,31.50
2022-08-27T12:48:44.348Z,31.45
2022-08-27T12:51:15.060Z,31.28
2022-08-27T12:54:01.665Z,31.29
2022-08-27T12:56:28.239Z,31.02
2022-08-27T12:59:05.144Z,31.26
2022-08-27T13:01:44.531Z,31.41
2022-08-27T13:04:25.801Z,31.34
2022-08-27T13:06:52.488Z,31.42
2022-08-27T13:09:34.264Z,31.53
2022-08-27T13:12:03.705Z,31.55
2022-08-27T13:14:39.268Z,31.68
2022-08-27T13:17:18.844Z,31.76
2022-08-27T13:19:51.363Z,31.92
2022-08-27T13:22:23.616Z,32.06
2022-08-27T13:24:52.809Z,32.15
2022-08-27T13:27:28.327Z,32.05
2022-08-27T13:29:56.128Z,31.81
2022-08-27T13:32:27.222Z,31.88
2022-08-27T13:34:54.022Z,32.14
2022-08-27T13:37:51.530Z,32.10
2022-08-27T13:41:01.207Z,32.43
2022-08-27T13:43:48.631Z,33.19
2022-08-27T13:46:17.706Z,33.53
2022-08-27T13:48:47.654Z,33.90
2022-08-27T13:51:15.864Z,34.70
2022-08-27T13:54:05.829Z,35.07
2022-08-27T13:56:36.920Z,35.69
2022-08-27T13:59:21.567Z,35.88
2022-08-27T14:02:00.478Z,37.04
2022-08-27T14:04:49.260Z,37.16
2022-08-27T14:07:20.917Z,37.97
2022-08-27T14:09:55.142Z,38.17
2022-08-27T14:12:38.168Z,36.75
2022-08-27T14:15:25.702Z,36.73
2022-08-27T14:17:52.658Z,36.93
2022-08-27T14:20:20.461Z,38.01
2022-08-27T14:22:47.729Z,38.62
2022-08-27T14:25:22.429Z,39.05
2022-08-27T14:27:54.048Z,39.39
2022-08-27T14:30:29.330Z,39.95
2022-08-27T14:32:59.140Z,40.40
2022-08-27T14:35:26.711Z,40.00
2022-08-27T14:37:54.346Z,40.36
2022-08-27T14:40:21.175Z,40.67
2022-08-27T14:42:47.833Z,40.70
2022-08-27T14:45:15.193Z,40.63
2022-08-27T14:47:44.181Z,40.18
2022-08-27T14:50:12.878Z,38.91
2022-08-27T14:52:40.747Z,38.61
2022-08-27T14:55:10.762Z,38.79
2022-08-27T14:57:37.980Z,38.95
2022-08-27T15:00:06.832Z,38.68
2022-08-27T15:02:34.408Z,38.95
2022-08-27T15:05:01.166Z,38.59
2022-08-27T15:07:37.817Z,38.42
2022-08-27T15:10:04.974Z,37.11
2022-08-27T15:12:32.074Z,36.49
2022-08-27T15:14:58.967Z,37.33
2022-08-27T15:17:34.514Z,37.51
2022-08-27T15:20:08.111Z,37.84
2022-08-27T15:22:37.844Z,37.13
2022-08-27T15:25:09.072Z,37.02
2022-08-27T15:27:39.107Z,37.18
2022-08-27T15:30:12.557Z,37.59
2022-08-27T15:32:46.899Z,37.30
2022-08-27T15:35:20.947Z,36.64
2022-08-27T15:37:47.646Z,35.92
2022-08-27T15:40:16.306Z,35.64
2022-08-27T15:42:43.108Z,35.19
2022-08-27T15:45:13.116Z,35.03
2022-08-27T15:47:39.910Z,35.07
2022-08-27T15:50:07.348Z,35.20
2022-08-27T15:52:41.047Z,35.21
2022-08-27T15:55:21.013Z,35.08
2022-08-27T15:57:48.036Z,34.98
2022-08-27T16:00:16.767Z,35.28
2022-08-27T16:02:44.831Z,35.66
2022-08-27T16:05:13.137Z,36.35
2022-08-27T16:07:40.095Z,36.17
2022-08-27T16:10:07.932Z,35.78
2022-08-27T16:12:35.993Z,35.73
2022-08-27T16:15:05.809Z,35.10
2022-08-27T16:17:33.071Z,35.21
2022-08-27T16:20:00.115Z,35.42
2022-08-27T16:22:26.863Z,35.00
2022-08-27T16:24:54.036Z,35.28
2022-08-27T16:27:20.834Z,35.47
2022-08-27T16:29:47.420Z,35.35
2022-08-27T16:32:17.334Z,35.55
2022-08-27T16:34:53.278Z,35.54
2022-08-27T16:37:26.666Z,34.80
2022-08-27T16:39:53.568Z,34.45
2022-08-27T16:42:20.649Z,34.34
2022-08-27T16:44:47.311Z,34.14
2022-08-27T16:47:14.162Z,33.80
2022-08-27T16:49:59.336Z,33.55
2022-08-27T16:52:25.996Z,33.26
2022-08-27T16:54:53.058Z,33.04
2022-08-27T16:57:19.681Z,32.75
2022-08-27T16:59:46.423Z,32.41
2022-08-27T17:02:30.201Z,32.16
2022-08-27T17:05:17.446Z,31.98
2022-08-27T17:07:48.744Z,31.72
2022-08-27T17:10:18.400Z,31.60
2022-08-27T17:12:47.246Z,31.45
2022-08-27T17:15:18.544Z,31.31
2022-08-27T17:17:46.043Z,31.09
2022-08-27T17:20:13.233Z,30.90
2022-08-27T17:22:39.948Z,30.69
2022-08-27T17:25:07.886Z,30.60
2022-08-27T17:27:34.583Z,30.47
2022-08-27T17:30:01.244Z,30.26
2022-08-27T17:32:31.591Z,30.05
2022-08-27T17:35:00.272Z,29.87
2022-08-27T17:37:30.288Z,29.73
2022-08-27T17:39:57.482Z,29.65
2022-08-27T17:42:26.141Z,29.51
2022-08-27T17:44:53.136Z,29.44
2022-08-27T17:47:20.952Z,29.32
2022-08-27T17:49:47.618Z,29.18
2022-08-27T17:52:15.340Z,29.07
2022-08-27T17:54:45.883Z,28.98
2022-08-27T17:57:24.512Z,28.92
2022-08-27T17:59:53.545Z,28.81
2022-08-27T18:02:28.287Z,28.72
2022-08-27T18:04:55.611Z,28.61
2022-08-27T18:07:22.622Z,28.50
2022-08-27T18:09:49.880Z,28.41
2022-08-27T18:12:21.699Z,28.30
2022-08-27T18:14:56.915Z,28.24
2022-08-27T18:17:23.575Z,28.17
2022-08-27T18:19:51.356Z,28.10
2022-08-27T18:22:18.203Z,28.08
2022-08-27T18:24:45.050Z,28.03
2022-08-27T18:27:11.698Z,27.98
2022-08-27T18:29:38.356Z,27.94
2022-08-27T18:32:05.161Z,27.90
2022-08-27T18:34:32.541Z,27.87
2022-08-27T18:36:59.288Z,27.84
2022-08-27T18:39:26.176Z,27.83
2022-08-27T18:41:53.277Z,27.79
2022-08-27T18:44:20.091Z,27.75
2022-08-27T18:46:46.772Z,27.67
2022-08-27T18:49:13.460Z,27.59
2022-08-27T18:51:43.036Z,27.49
2022-08-27T18:54:09.802Z,27.42
2022-08-27T18:56:36.548Z,27.34
2022-08-27T18:59:04.317Z,27.25
2022-08-27T19:01:32.007Z,27.20
2022-08-27T19:03:58.970Z,27.12
2022-08-27T19:06:25.727Z,27.07
2022-08-27T19:08:52.446Z,27.02
2022-08-27T19:11:19.415Z,26.99
2022-08-27T19:13:50.578Z,27.00
2022-08-27T19:16:20.285Z,27.00
2022-08-27T19:18:47.382Z,26.98
2022-08-27T19:21:14.287Z,26.92
2022-08-27T19:23:41.600Z,26.87
2022-08-27T19:26:15.888Z,26.83
2022-08-27T19:28:45.181Z,26.79
2022-08-27T19:31:13.624Z,26.75
2022-08-27T19:33:40.664Z,26.75
2022-08-27T19:36:15.025Z,26.65
2022-08-27T19:38:43.033Z,26.52
2022-08-27T19:41:09.837Z,26.39
2022-08-27T19:43:36.580Z,26.30
2022-08-27T19:46:04.905Z,26.26
2022-08-27T19:48:34.170Z,26.25
2022-08-27T19:51:01.282Z,26.18
2022-08-27T19:53:28.036Z,26.11
2022-08-27T19:55:54.899Z,26.05
2022-08-27T19:58:21.874Z,26.00
2022-08-27T20:00:49.065Z,25.97
2022-08-27T20:03:16.416Z,25.92
2022-08-27T20:05:44.105Z,25.83
2022-08-27T20:08:12.550Z,25.72
2022-08-27T20:10:40.299Z,25.67
2022-08-27T20:13:08.014Z,25.63
2022-08-27T20:15:36.283Z,25.56
2022-08-27T20:18:05.921Z,25.52
2022-08-27T20:20:33.733Z,25.49
2022-08-27T20:23:03.736Z,25.47
2022-08-27T20:25:31.253Z,25.46
2022-08-27T20:27:58.056Z,25.46
2022-08-27T20:30:28.061Z,25.43
2022-08-27T20:32:54.855Z,25.35
2022-08-27T20:35:22.238Z,25.29
2022-08-27T20:37:48.987Z,25.26
2022-08-27T20:40:27.474Z,25.23
2022-08-27T20:42:54.220Z,25.22
2022-08-27T20:45:20.997Z,25.20
2022-08-27T20:47:49.503Z,25.18
2022-08-27T20:50:18.362Z,25.15
2022-08-27T20:52:45.634Z,25.11
2022-08-27T20:55:14.327Z,25.04
2022-08-27T20:58:05.837Z,25.04
2022-08-27T21:00:34.753Z,24.99
2022-08-27T21:03:01.756Z,24.93
2022-08-27T21:05:33.695Z,24.84
2022-08-27T21:08:00.952Z,24.81
2022-08-27T21:10:27.710Z,24.76
2022-08-27T21:12:54.341Z,24.73
2022-08-27T21:15:21.087Z,24.71
2022-08-27T21:17:47.833Z,24.71
2022-08-27T21:20:14.668Z,24.72
2022-08-27T21:22:43.253Z,24.73
2022-08-27T21:25:12.420Z,24.73
2022-08-27T21:27:39.748Z,24.69
2022-08-27T21:30:08.654Z,24.63
2022-08-27T21:32:35.352Z,24.59
2022-08-27T21:35:01.977Z,24.60
2022-08-27T21:37:28.662Z,24.61
2022-08-27T21:39:55.380Z,24.63
2022-08-27T21:42:22.069Z,24.65
2022-08-27T21:44:49.453Z,24.64
2022-08-27T21:47:16.220Z,24.61
2022-08-27T21:49:42.928Z,24.56
2022-08-27T21:52:09.985Z,24.48
2022-08-27T21:54:39.690Z,24.40
2022-08-27T21:57:06.737Z,24.37
2022-08-27T21:59:40.143Z,24.35
2022-08-27T22:02:28.813Z,24.34
2022-08-27T22:04:54.318Z,24.35
2022-08-27T22:07:20.987Z,24.37
2022-08-27T22:09:48.859Z,24.36
2022-08-27T22:12:15.788Z,24.38
2022-08-27T22:14:42.413Z,24.38
2022-08-27T22:17:09.033Z,24.40
2022-08-27T22:19:35.772Z,24.37
2022-08-27T22:22:02.477Z,24.34
2022-08-27T22:24:29.151Z,24.29
2022-08-27T22:26:55.840Z,24.26
2022-08-27T22:29:24.526Z,24.20
2022-08-27T22:31:51.509Z,24.14
2022-08-27T22:34:18.214Z,24.09
2022-08-27T22:36:44.901Z,23.97
2022-08-27T22:39:11.561Z,23.88
2022-08-27T22:41:38.377Z,23.81
2022-08-27T22:44:08.537Z,23.80
2022-08-27T22:46:35.658Z,23.77
2022-08-27T22:49:02.330Z,23.77
2022-08-27T22:51:28.948Z,23.78
2022-08-27T22:53:55.596Z,23.83
2022-08-27T22:56:22.395Z,23.85
2022-08-27T22:58:49.033Z,23.89
2022-08-27T23:01:20.481Z,23.90
2022-08-27T23:03:47.929Z,23.90
2022-08-27T23:06:14.832Z,23.91
2022-08-27T23:08:41.537Z,23.91
2022-08-27T23:11:08.247Z,23.90
2022-08-27T23:13:35.111Z,23.89
2022-08-27T23:16:03.179Z,23.88
2022-08-27T23:18:30.463Z,23.88
2022-08-27T23:20:57.148Z,23.88
2022-08-27T23:23:26.770Z,23.85
2022-08-27T23:26:16.136Z,23.82
2022-08-27T23:28:43.588Z,23.81
2022-08-27T23:31:10.754Z,23.79
2022-08-27T23:33:38.448Z,23.80
2022-08-27T23:36:06.347Z,23.79
2022-08-27T23:38:33.874Z,23.76
2022-08-27T23:41:00.679Z,23.73
2022-08-27T23:43:28.345Z,23.69
2022-08-27T23:45:55.011Z,23.64
2022-08-27T23:48:21.644Z,23.58
2022-08-27T23:50:48.410Z,23.54
2022-08-27T23:53:15.333Z,23.52
2022-08-27T23:55:42.061Z,23.51
2022-08-27T23:58:09.500Z,23.49
